createdAt,value
2023-04-03T00:00:42.768Z,100675.66
2023-04-03T00:03:10.172Z,100675.31
2023-04-03T00:05:37.691Z,100676.47
2023-04-03T00:08:08.489Z,100672.50
2023-04-03T00:10:39.347Z,100676.84
2023-04-03T00:13:08.173Z,100674.94
2023-04-03T00:15:35.591Z,100670.16
2023-04-03T00:18:03.459Z,100674.88
2023-04-03T00:20:31.159Z,100672.31
2023-04-03T00:22:58.551Z,100669.16
2023-04-03T00:25:26.026Z,100665.00
2023-04-03T00:27:53.725Z,100656.09
2023-04-03T00:30:21.576Z,100654.81
2023-04-03T00:32:50.102Z,100661.00
2023-04-03T00:35:18.762Z,100655.06
2023-04-03T00:37:46.316Z,100648.41
2023-04-03T00:40:15.159Z,100643.63
2023-04-03T00:42:42.960Z,100647.25
2023-04-03T00:45:23.574Z,100639.91
2023-04-03T00:47:50.918Z,100644.97
2023-04-03T00:50:18.881Z,100642.00
2023-04-03T00:52:47.304Z,100643.81
2023-04-03T00:55:15.422Z,100640.78
2023-04-03T00:57:42.808Z,100636.69
2023-04-03T01:00:12.191Z,100642.19
2023-04-03T01:02:41.951Z,100639.91
2023-04-03T01:05:10.995Z,100639.38
2023-04-03T01:07:38.837Z,100642.91
2023-04-03T01:10:09.033Z,100640.19
2023-04-03T01:12:40.452Z,100639.91
2023-04-03T01:15:27.071Z,100639.50
2023-04-03T01:17:57.695Z,100635.13
2023-04-03T01:20:37.692Z,100639.84
2023-04-03T01:23:11.435Z,100641.13
2023-04-03T01:25:43.727Z,100629.22
2023-04-03T01:28:17.865Z,100626.31
2023-04-03T01:30:54.819Z,100625.94
2023-04-03T01:33:22.356Z,100640.03
2023-04-03T01:35:50.595Z,100626.25
2023-04-03T01:38:18.239Z,100621.16
2023-04-03T01:40:45.545Z,100625.03
2023-04-03T01:43:13.179Z,100630.94
2023-04-03T01:45:40.690Z,100633.28
2023-04-03T01:48:08.550Z,100624.59
2023-04-03T01:50:36.354Z,100621.19
2023-04-03T01:53:03.919Z,100626.06
2023-04-03T01:55:31.121Z,100617.63
2023-04-03T01:57:58.585Z,100614.91
2023-04-03T02:00:26.879Z,100618.69
2023-04-03T02:02:54.525Z,100611.13
2023-04-03T02:05:21.615Z,100609.78
2023-04-03T02:07:49.035Z,100608.00
2023-04-03T02:10:16.354Z,100603.94
2023-04-03T02:12:43.486Z,100600.72
2023-04-03T02:15:11.003Z,100600.47
2023-04-03T02:17:38.030Z,100590.81
2023-04-03T02:20:05.900Z,100594.81
2023-04-03T02:22:34.201Z,100602.06
2023-04-03T02:25:01.632Z,100596.03
2023-04-03T02:27:29.225Z,100588.63
2023-04-03T02:29:56.567Z,100591.72
2023-04-03T02:32:24.052Z,100587.53
2023-04-03T02:34:51.721Z,100583.47
2023-04-03T02:37:19.091Z,100597.03
2023-04-03T02:39:47.854Z,100585.28
2023-04-03T02:42:15.361Z,100582.72
2023-04-03T02:44:43.242Z,100584.06
2023-04-03T02:47:10.928Z,100575.16
2023-04-03T02:49:38.336Z,100580.97
2023-04-03T02:52:06.051Z,100573.59
2023-04-03T02:54:33.211Z,100575.69
2023-04-03T02:57:04.520Z,100575.03
2023-04-03T02:59:32.409Z,100576.53
2023-04-03T03:01:59.447Z,100568.34
2023-04-03T03:04:26.984Z,100566.84
2023-04-03T03:06:54.354Z,100561.72
2023-04-03T03:09:21.705Z,100543.38
2023-04-03T03:11:48.948Z,100542.09
2023-04-03T03:14:16.294Z,100536.97
2023-04-03T03:16:43.283Z,100535.22
2023-04-03T03:19:10.741Z,100549.72
2023-04-03T03:21:38.362Z,100545.66
2023-04-03T03:24:06.279Z,100540.47
2023-04-03T03:26:33.721Z,100530.66
2023-04-03T03:29:02.970Z,100529.00
2023-04-03T03:31:30.891Z,100517.69
2023-04-03T03:33:58.268Z,100537.38
2023-04-03T03:36:26.238Z,100534.84
2023-04-03T03:38:53.616Z,100526.44
2023-04-03T03:41:21.770Z,100525.00
2023-04-03T03:43:48.926Z,100516.69
2023-04-03T03:46:17.263Z,100510.94
2023-04-03T03:48:44.676Z,100514.75
2023-04-03T03:51:11.985Z,100514.66
2023-04-03T03:53:40.054Z,100509.75
2023-04-03T03:56:11.887Z,100500.97
2023-04-03T03:58:41.252Z,100496.47
2023-04-03T04:01:08.777Z,100496.09
2023-04-03T04:03:42.310Z,100498.78
2023-04-03T04:06:12.855Z,100496.44
2023-04-03T04:08:40.453Z,100492.28
2023-04-03T04:11:10.531Z,100500.63
2023-04-03T04:13:38.909Z,100492.28
2023-04-03T04:16:07.383Z,100499.19
2023-04-03T04:18:35.439Z,100478.13
2023-04-03T04:21:02.898Z,100486.53
2023-04-03T04:23:30.342Z,100478.03
2023-04-03T04:25:59.099Z,100466.22
2023-04-03T04:28:27.736Z,100460.81
2023-04-03T04:30:57.028Z,100460.03
2023-04-03T04:33:27.058Z,100458.38
2023-04-03T04:35:55.414Z,100445.00
2023-04-03T04:38:22.607Z,100460.56
2023-04-03T04:40:52.642Z,100432.97
2023-04-03T04:43:20.946Z,100450.31
2023-04-03T04:46:11.223Z,100438.47
2023-04-03T04:48:43.794Z,100425.28
2023-04-03T04:51:11.871Z,100431.44
2023-04-03T04:53:39.876Z,100427.00
2023-04-03T04:56:08.788Z,100414.41
2023-04-03T04:58:38.310Z,100407.25
2023-04-03T05:01:07.804Z,100402.84
2023-04-03T05:03:38.565Z,100395.50
2023-04-03T05:06:06.651Z,100388.69
2023-04-03T05:08:35.682Z,100390.72
2023-04-03T05:11:04.142Z,100386.09
2023-04-03T05:13:32.165Z,100388.47
2023-04-03T05:16:00.375Z,100377.31
2023-04-03T05:18:28.311Z,100380.72
2023-04-03T05:20:59.769Z,100371.28
2023-04-03T05:23:27.694Z,100363.81
2023-04-03T05:25:56.488Z,100366.38
2023-04-03T05:28:24.381Z,100358.69
2023-04-03T05:30:58.809Z,100342.88
2023-04-03T05:33:32.043Z,100346.66
2023-04-03T05:36:10.693Z,100349.13
2023-04-03T05:38:43.677Z,100324.00
2023-04-03T05:41:11.584Z,100331.69
2023-04-03T05:43:39.659Z,100331.84
2023-04-03T05:46:13.293Z,100330.84
2023-04-03T05:48:42.369Z,100322.44
2023-04-03T05:51:20.153Z,100313.31
2023-04-03T05:53:51.483Z,100304.75
2023-04-03T05:56:18.926Z,100292.03
2023-04-03T05:58:46.235Z,100294.88
2023-04-03T06:01:14.366Z,100304.56
2023-04-03T06:03:41.617Z,100287.28
2023-04-03T06:06:13.662Z,100286.03
2023-04-03T06:08:40.899Z,100276.25
2023-04-03T06:11:09.707Z,100285.50
2023-04-03T06:13:38.021Z,100295.34
2023-04-03T06:16:06.604Z,100296.28
2023-04-03T06:18:33.609Z,100293.47
2023-04-03T06:21:01.653Z,100288.31
2023-04-03T06:23:28.769Z,100283.81
2023-04-03T06:25:56.399Z,100279.31
2023-04-03T06:28:23.480Z,100282.34
2023-04-03T06:30:51.133Z,100284.00
2023-04-03T06:33:18.702Z,100278.25
2023-04-03T06:35:46.647Z,100274.63
2023-04-03T06:38:14.059Z,100252.34
2023-04-03T06:40:41.188Z,100255.88
2023-04-03T06:43:08.602Z,100249.31
2023-04-03T06:45:37.535Z,100240.25
2023-04-03T06:48:06.271Z,100241.72
2023-04-03T06:50:33.463Z,100234.66
2023-04-03T06:53:01.820Z,100233.16
2023-04-03T06:55:28.888Z,100232.03
2023-04-03T06:57:56.034Z,100232.38
2023-04-03T07:00:23.207Z,100233.72
2023-04-03T07:02:50.657Z,100232.38
2023-04-03T07:05:18.071Z,100225.50
2023-04-03T07:07:45.755Z,100205.19
2023-04-03T07:10:13.415Z,100210.13
2023-04-03T07:12:40.845Z,100201.41
2023-04-03T07:15:09.113Z,100201.28
2023-04-03T07:17:37.657Z,100194.25
2023-04-03T07:20:05.279Z,100195.88
2023-04-03T07:22:32.914Z,100199.31
2023-04-03T07:25:00.575Z,100194.69
2023-04-03T07:27:29.152Z,100193.22
2023-04-03T07:29:57.137Z,100191.63
2023-04-03T07:32:24.235Z,100185.19
2023-04-03T07:34:52.095Z,100176.16
2023-04-03T07:37:19.601Z,100181.31
2023-04-03T07:39:46.926Z,100176.59
2023-04-03T07:42:14.243Z,100174.03
2023-04-03T07:44:41.761Z,100173.88
2023-04-03T07:47:09.282Z,100181.13
2023-04-03T07:49:40.704Z,100177.84
2023-04-03T07:52:10.084Z,100168.03
2023-04-03T07:54:37.607Z,100165.38
2023-04-03T07:57:05.786Z,100168.28
2023-04-03T07:59:33.143Z,100162.69
2023-04-03T08:02:00.286Z,100164.06
2023-04-03T08:04:27.936Z,100161.94
2023-04-03T08:06:55.199Z,100160.75
2023-04-03T08:09:22.809Z,100157.25
2023-04-03T08:11:50.352Z,100162.63
2023-04-03T08:14:19.569Z,100156.59
2023-04-03T08:16:47.660Z,100151.84
2023-04-03T08:19:25.398Z,100145.63
2023-04-03T08:21:55.475Z,100144.41
2023-04-03T08:24:22.828Z,100133.13
2023-04-03T08:26:50.431Z,100127.75
2023-04-03T08:29:17.656Z,100125.72
2023-04-03T08:31:45.817Z,100121.03
2023-04-03T08:34:14.216Z,100126.06
2023-04-03T08:36:41.819Z,100122.38
2023-04-03T08:39:08.908Z,100110.47
2023-04-03T08:41:40.515Z,100105.09
2023-04-03T08:44:47.931Z,100109.47
2023-04-03T08:47:21.625Z,100106.78
2023-04-03T08:49:54.063Z,100108.28
2023-04-03T08:52:33.767Z,100106.16
2023-04-03T08:55:06.066Z,100097.91
2023-04-03T08:57:40.547Z,100102.75
2023-04-03T09:00:15.638Z,100104.59
2023-04-03T09:02:48.150Z,100097.38
2023-04-03T09:05:39.791Z,100084.63
2023-04-03T09:08:33.010Z,100074.19
2023-04-03T09:11:12.255Z,100074.88
2023-04-03T09:14:03.699Z,100061.94
2023-04-03T09:16:47.855Z,100061.09
2023-04-03T09:19:33.743Z,100060.59
2023-04-03T09:22:13.560Z,100053.41
2023-04-03T09:24:41.074Z,100043.66
2023-04-03T09:27:11.063Z,100047.03
2023-04-03T09:29:41.310Z,100052.56
2023-04-03T09:32:28.264Z,100042.19
2023-04-03T09:35:18.973Z,100043.50
2023-04-03T09:37:49.643Z,100036.78
2023-04-03T09:40:29.173Z,100046.34
2023-04-03T09:43:01.740Z,100040.16
2023-04-03T09:45:36.020Z,100038.13
2023-04-03T09:48:17.369Z,100037.81
2023-04-03T09:50:59.149Z,100032.28
2023-04-03T09:53:39.323Z,100024.75
2023-04-03T09:56:19.142Z,100031.94
2023-04-03T09:58:51.778Z,100028.44
2023-04-03T10:01:34.154Z,100026.41
2023-04-03T10:04:12.700Z,100025.56
2023-04-03T10:06:47.785Z,100029.78
2023-04-03T10:09:28.168Z,100026.25
2023-04-03T10:12:07.620Z,100024.22
2023-04-03T10:14:36.174Z,100018.88
2023-04-03T10:17:20.943Z,100020.22
2023-04-03T10:20:27.308Z,100016.03
2023-04-03T10:23:21.132Z,100004.13
2023-04-03T10:25:56.921Z,100008.31
2023-04-03T10:28:36.610Z,100003.94
2023-04-03T10:31:25.149Z,100000.84
2023-04-03T10:34:04.232Z,99989.03
2023-04-03T10:37:07.541Z,99988.38
2023-04-03T10:39:47.668Z,99983.44
2023-04-03T10:42:38.242Z,99991.63
2023-04-03T10:45:21.016Z,99976.66
2023-04-03T10:47:48.530Z,99969.25
2023-04-03T10:50:30.686Z,99987.41
2023-04-03T10:53:19.360Z,99985.72
2023-04-03T10:55:53.235Z,99993.13
2023-04-03T10:58:30.075Z,99980.56
2023-04-03T11:01:01.159Z,99986.13
2023-04-03T11:03:31.873Z,99981.94
2023-04-03T11:06:00.640Z,99977.41
2023-04-03T11:08:33.540Z,99991.59
2023-04-03T11:11:11.535Z,99993.63
2023-04-03T11:14:09.576Z,100001.25
2023-04-03T11:16:51.080Z,99993.72
2023-04-03T11:20:07.458Z,99992.25
2023-04-03T11:22:42.567Z,99982.34
2023-04-03T11:25:10.137Z,99983.38
2023-04-03T11:27:54.199Z,99976.31
2023-04-03T11:30:30.032Z,99970.94
2023-04-03T11:33:06.144Z,99972.31
2023-04-03T11:35:34.115Z,99968.59
2023-04-03T11:38:02.512Z,99977.69
2023-04-03T11:40:31.897Z,99965.75
2023-04-03T11:43:44.431Z,99966.41
2023-04-03T11:46:11.973Z,99969.25
2023-04-03T11:48:41.655Z,99971.13
2023-04-03T11:51:17.014Z,99963.53
2023-04-03T11:53:44.983Z,99964.38
2023-04-03T11:56:24.624Z,99971.44
2023-04-03T11:59:07.081Z,99971.25
2023-04-03T12:02:04.328Z,99961.38
2023-04-03T12:04:33.209Z,99960.84
2023-04-03T12:07:04.976Z,99964.38
2023-04-03T12:09:41.736Z,99965.75
2023-04-03T12:12:41.703Z,99962.75
2023-04-03T12:15:38.692Z,99956.72
2023-04-03T12:18:43.478Z,99963.44
2023-04-03T12:21:15.031Z,99955.25
2023-04-03T12:24:09.534Z,99963.50
2023-04-03T12:26:48.635Z,99960.47
2023-04-03T12:29:35.469Z,99959.63
2023-04-03T12:32:09.070Z,99955.28
2023-04-03T12:34:58.614Z,99956.78
2023-04-03T12:37:44.444Z,99965.16
2023-04-03T12:40:26.253Z,99970.19
2023-04-03T12:43:00.277Z,99970.72
2023-04-03T12:45:28.253Z,99963.97
2023-04-03T12:47:57.328Z,99965.31
2023-04-03T12:50:33.787Z,99965.50
2023-04-03T12:53:04.817Z,99972.19
2023-04-03T12:55:32.152Z,99970.69
2023-04-03T12:58:15.908Z,99970.16
2023-04-03T13:00:43.375Z,99959.75
2023-04-03T13:03:30.839Z,99978.69
2023-04-03T13:06:01.602Z,99970.50
2023-04-03T13:08:29.403Z,99986.22
2023-04-03T13:11:02.681Z,99984.19
2023-04-03T13:13:30.684Z,99985.69
2023-04-03T13:15:58.389Z,99993.19
2023-04-03T13:18:30.123Z,99990.00
2023-04-03T13:21:00.113Z,99988.50
2023-04-03T13:23:27.543Z,99993.84
2023-04-03T13:25:55.736Z,99993.84
2023-04-03T13:28:24.520Z,99987.94
2023-04-03T13:31:07.558Z,100002.53
2023-04-03T13:33:38.874Z,99998.47
2023-04-03T13:36:32.481Z,99996.94
2023-04-03T13:39:08.645Z,100002.13
2023-04-03T13:41:38.330Z,99998.72
2023-04-03T13:44:24.211Z,99994.84
2023-04-03T13:46:56.233Z,99993.94
2023-04-03T13:49:36.247Z,99997.28
2023-04-03T13:52:25.573Z,100010.31
2023-04-03T13:54:55.960Z,100003.72
2023-04-03T13:57:23.364Z,100007.56
2023-04-03T13:59:51.185Z,100014.25
2023-04-03T14:02:21.387Z,100006.66
2023-04-03T14:04:53.958Z,100007.97
2023-04-03T14:07:22.094Z,100011.50
2023-04-03T14:09:49.820Z,100010.81
2023-04-03T14:12:31.472Z,100014.47
2023-04-03T14:15:01.675Z,100011.28
2023-04-03T14:17:29.356Z,100010.44
2023-04-03T14:19:56.975Z,100013.13
2023-04-03T14:22:26.822Z,100012.44
2023-04-03T14:24:54.111Z,100017.97
2023-04-03T14:27:23.446Z,100019.91
2023-04-03T14:29:52.276Z,100027.44
2023-04-03T14:32:21.355Z,100018.72
2023-04-03T14:34:48.870Z,100025.22
2023-04-03T14:37:18.721Z,100035.94
2023-04-03T14:39:46.022Z,100033.56
2023-04-03T14:42:15.923Z,100038.53
2023-04-03T14:44:43.614Z,100038.84
2023-04-03T14:47:29.986Z,100042.13
2023-04-03T14:50:00.262Z,100051.75
2023-04-03T14:52:33.168Z,100045.34
2023-04-03T14:55:01.180Z,100039.63
2023-04-03T14:57:28.937Z,100040.53
2023-04-03T14:59:56.532Z,100049.84
2023-04-03T15:02:27.624Z,100046.75
2023-04-03T15:04:56.540Z,100056.09
2023-04-03T15:07:24.820Z,100047.84
2023-04-03T15:09:52.043Z,100055.44
2023-04-03T15:12:19.638Z,100061.25
2023-04-03T15:14:57.485Z,100062.56
2023-04-03T15:17:27.738Z,100051.47
2023-04-03T15:19:55.233Z,100057.94
2023-04-03T15:22:22.695Z,100056.56
2023-04-03T15:24:49.832Z,100058.97
2023-04-03T15:27:17.630Z,100056.19
2023-04-03T15:29:45.307Z,100061.59
2023-04-03T15:32:12.708Z,100060.47
2023-04-03T15:34:40.346Z,100060.53
2023-04-03T15:37:07.538Z,100068.41
2023-04-03T15:39:34.708Z,100061.13
2023-04-03T15:42:06.604Z,100070.00
2023-04-03T15:44:34.895Z,100069.16
2023-04-03T15:47:02.475Z,100069.22
2023-04-03T15:49:30.152Z,100071.59
2023-04-03T15:51:57.882Z,100070.34
2023-04-03T15:54:26.371Z,100057.97
2023-04-03T15:56:54.429Z,100058.56
2023-04-03T15:59:22.001Z,100066.13
2023-04-03T16:01:50.034Z,100072.16
2023-04-03T16:04:18.056Z,100064.88
2023-04-03T16:06:46.825Z,100066.25
2023-04-03T16:09:14.226Z,100072.72
2023-04-03T16:11:41.443Z,100073.28
2023-04-03T16:14:09.132Z,100069.63
2023-04-03T16:16:36.685Z,100063.19
2023-04-03T16:19:03.879Z,100061.47
2023-04-03T16:21:31.357Z,100062.31
2023-04-03T16:23:59.270Z,100064.28
2023-04-03T16:26:27.422Z,100063.59
2023-04-03T16:28:55.281Z,100056.97
2023-04-03T16:31:23.318Z,100048.16
2023-04-03T16:33:50.679Z,100069.75
2023-04-03T16:36:18.294Z,100060.91
2023-04-03T16:38:45.408Z,100058.38
2023-04-03T16:41:12.805Z,100059.53
2023-04-03T16:46:13.253Z,100054.88
2023-04-03T16:48:40.561Z,100055.28
2023-04-03T16:51:07.951Z,100061.31
2023-04-03T16:53:35.186Z,100062.56
2023-04-03T16:56:02.584Z,100049.78
2023-04-03T16:58:29.716Z,100061.56
2023-04-03T17:00:57.028Z,100054.25
2023-04-03T17:03:26.264Z,100062.53
2023-04-03T17:05:53.816Z,100054.81
2023-04-03T17:08:21.268Z,100053.13
2023-04-03T17:10:50.196Z,100053.78
2023-04-03T17:13:18.044Z,100052.25
2023-04-03T17:15:45.461Z,100057.84
2023-04-03T17:18:13.280Z,100053.63
2023-04-03T17:20:40.901Z,100054.47
2023-04-03T17:23:08.092Z,100047.47
2023-04-03T17:25:44.147Z,100056.72
2023-04-03T17:28:11.513Z,100047.41
2023-04-03T17:30:38.969Z,100052.03
2023-04-03T17:33:06.422Z,100045.59
2023-04-03T17:35:33.497Z,100047.78
2023-04-03T17:38:00.970Z,100039.78
2023-04-03T17:40:28.511Z,100027.59
2023-04-03T17:42:55.748Z,100036.44
2023-04-03T17:45:23.819Z,100036.44
2023-04-03T17:47:52.508Z,100035.44
2023-04-03T17:50:20.365Z,100035.31
2023-04-03T17:52:47.789Z,100038.25
2023-04-03T17:55:17.242Z,100039.22
2023-04-03T17:57:44.909Z,100033.34
2023-04-03T18:00:12.819Z,100031.91
2023-04-03T18:02:41.947Z,100034.72
2023-04-03T18:05:12.889Z,100037.63
2023-04-03T18:07:40.365Z,100034.97
2023-04-03T18:10:08.846Z,100035.50
2023-04-03T18:12:37.155Z,100035.63
2023-04-03T18:15:05.011Z,100041.94
2023-04-03T18:17:32.603Z,100037.59
2023-04-03T18:19:59.656Z,100032.78
2023-04-03T18:22:27.544Z,100027.72
2023-04-03T18:24:54.664Z,100035.84
2023-04-03T18:27:22.829Z,100034.44
2023-04-03T18:29:52.796Z,100036.66
2023-04-03T18:32:20.881Z,100025.53
2023-04-03T18:34:48.266Z,100030.16
2023-04-03T18:37:16.105Z,100026.22
2023-04-03T18:39:43.806Z,100032.16
2023-04-03T18:42:16.671Z,100028.94
2023-04-03T18:44:45.124Z,100034.66
2023-04-03T18:47:12.606Z,100024.63
2023-04-03T18:49:40.438Z,100028.66
2023-04-03T18:52:08.131Z,100023.34
2023-04-03T18:54:37.014Z,100025.44
2023-04-03T18:57:04.754Z,100019.50
2023-04-03T18:59:32.237Z,100013.59
2023-04-03T19:02:00.426Z,100009.66
2023-04-03T19:04:28.018Z,100013.41
2023-04-03T19:06:55.477Z,100012.81
2023-04-03T19:09:23.155Z,100015.72
2023-04-03T19:11:50.245Z,100009.56
2023-04-03T19:14:17.460Z,100007.50
2023-04-03T19:16:45.048Z,100014.00
2023-04-03T19:19:12.374Z,100003.94
2023-04-03T19:21:41.139Z,100016.84
2023-04-03T19:24:12.516Z,100003.44
2023-04-03T19:26:41.107Z,100016.94
2023-04-03T19:29:08.724Z,100012.19
2023-04-03T19:31:37.238Z,100012.78
2023-04-03T19:34:05.271Z,100009.25
2023-04-03T19:36:33.265Z,100011.34
2023-04-03T19:39:00.741Z,100006.41
2023-04-03T19:41:28.772Z,100008.25
2023-04-03T19:43:56.530Z,100010.50
2023-04-03T19:46:27.871Z,100003.09
2023-04-03T19:48:55.282Z,100011.06
2023-04-03T19:51:22.399Z,99990.38
2023-04-03T19:53:50.015Z,100004.28
2023-04-03T19:56:17.554Z,99995.38
2023-04-03T19:58:45.286Z,100005.81
2023-04-03T20:01:12.282Z,100010.66
2023-04-03T20:03:39.541Z,100002.38
2023-04-03T20:06:06.618Z,99999.06
2023-04-03T20:08:34.396Z,100002.44
2023-04-03T20:11:01.771Z,100004.13
2023-04-03T20:13:28.817Z,100002.44
2023-04-03T20:15:56.237Z,100000.03
2023-04-03T20:18:23.790Z,100011.66
2023-04-03T20:20:55.056Z,100016.97
2023-04-03T20:23:22.765Z,100011.66
2023-04-03T20:26:05.958Z,100005.50
2023-04-03T20:28:36.390Z,100001.16
2023-04-03T20:31:04.840Z,99995.50
2023-04-03T20:33:31.893Z,99998.78
2023-04-03T20:35:58.930Z,99992.31
2023-04-03T20:38:26.101Z,100001.72
2023-04-03T20:40:53.846Z,99995.47
2023-04-03T20:43:22.854Z,99995.00
2023-04-03T20:45:50.530Z,100000.56
2023-04-03T20:48:18.132Z,99992.16
2023-04-03T20:50:47.299Z,99996.00
2023-04-03T20:53:17.585Z,99997.94
2023-04-03T20:56:00.056Z,99995.66
2023-04-03T20:58:30.208Z,99996.16
2023-04-03T21:00:57.450Z,99994.13
2023-04-03T21:03:25.729Z,99994.50
2023-04-03T21:06:00.492Z,99989.44
2023-04-03T21:09:05.101Z,99990.75
2023-04-03T21:12:09.848Z,99986.31
2023-04-03T21:15:14.435Z,99986.91
2023-04-03T21:18:08.297Z,99982.22
2023-04-03T21:20:36.927Z,99987.03
2023-04-03T21:23:05.146Z,99991.13
2023-04-03T21:25:32.842Z,99983.88
2023-04-03T21:28:00.291Z,99978.09
2023-04-03T21:30:27.476Z,99975.69
2023-04-03T21:32:54.629Z,99979.44
2023-04-03T21:35:22.143Z,99979.66
2023-04-03T21:37:49.188Z,99971.81
2023-04-03T21:40:16.482Z,99969.16
2023-04-03T21:42:43.682Z,99977.34
2023-04-03T21:45:11.748Z,99967.47
2023-04-03T21:47:40.098Z,99976.91
2023-04-03T21:50:08.060Z,99981.59
2023-04-03T21:52:35.883Z,99973.41
2023-04-03T21:55:03.523Z,99969.56
2023-04-03T21:57:31.023Z,99971.00
2023-04-03T21:59:58.225Z,99970.97
2023-04-03T22:02:26.895Z,99977.22
2023-04-03T22:04:54.202Z,99972.75
2023-04-03T22:07:21.366Z,99969.94
2023-04-03T22:09:48.856Z,99976.41
2023-04-03T22:12:16.476Z,99977.63
2023-04-03T22:14:44.236Z,99971.53
2023-04-03T22:17:11.770Z,99976.56
2023-04-03T22:19:39.168Z,99955.66
2023-04-03T22:22:07.432Z,99968.72
2023-04-03T22:24:34.691Z,99964.59
2023-04-03T22:27:02.942Z,99967.00
2023-04-03T22:29:30.048Z,99976.38
2023-04-03T22:31:57.263Z,99975.13
2023-04-03T22:34:24.605Z,99974.63
2023-04-03T22:36:53.291Z,99973.25
2023-04-03T22:39:20.787Z,99966.84
2023-04-03T22:41:47.970Z,99971.91
2023-04-03T22:44:17.515Z,99970.59
2023-04-03T22:46:46.193Z,99971.13
2023-04-03T22:49:13.349Z,99968.63
2023-04-03T22:51:40.766Z,99966.31
2023-04-03T22:54:08.108Z,99969.81
2023-04-03T22:56:35.198Z,99969.31
2023-04-03T22:59:02.693Z,99969.63
2023-04-03T23:01:30.641Z,99953.16
2023-04-03T23:03:57.829Z,99960.16
2023-04-03T23:06:26.358Z,99958.50
2023-04-03T23:08:53.917Z,99972.50
2023-04-03T23:11:21.665Z,99967.75
2023-04-03T23:13:49.348Z,99960.91
2023-04-03T23:16:17.092Z,99971.88
2023-04-03T23:18:44.156Z,99967.13
2023-04-03T23:21:11.629Z,99959.50
2023-04-03T23:23:39.075Z,99967.91
2023-04-03T23:26:06.275Z,99971.69
2023-04-03T23:28:33.490Z,99977.34
2023-04-03T23:31:02.669Z,99976.09
2023-04-03T23:33:31.100Z,99974.72
2023-04-03T23:35:58.894Z,99973.34
2023-04-03T23:38:25.982Z,99969.84
2023-04-03T23:40:53.389Z,99983.41
2023-04-03T23:43:21.214Z,99975.41
2023-04-03T23:45:48.526Z,99978.66
2023-04-03T23:48:15.926Z,99965.66
2023-04-03T23:50:43.614Z,99972.97
2023-04-03T23:53:13.127Z,99973.13
2023-04-03T23:55:41.339Z,99975.13
2023-04-03T23:58:08.372Z,99968.38
